sensor_id;sensor_type;location;lat;lon;timestamp;P1;durP1;ratioP1;P2;durP2;ratioP2
55288;SDS011;41154;45.394;5.734;2023-07-08T00:01:42;9.20;;;3.70;;
55288;SDS011;41154;45.394;5.734;2023-07-08T00:04:08;6.80;;;3.25;;
55288;SDS011;41154;45.394;5.734;2023-07-08T00:06:34;7.07;;;3.70;;
55288;SDS011;41154;45.394;5.734;2023-07-08T00:09:00;6.40;;;4.20;;
55288;SDS011;41154;45.394;5.734;2023-07-08T00:11:26;6.10;;;3.83;;
55288;SDS011;41154;45.394;5.734;2023-07-08T00:13:54;6.75;;;3.63;;
55288;SDS011;41154;45.394;5.734;2023-07-08T00:16:20;6.55;;;3.92;;
55288;SDS011;41154;45.394;5.734;2023-07-08T00:18:46;4.90;;;3.25;;
55288;SDS011;41154;45.394;5.734;2023-07-08T00:21:14;5.18;;;3.22;;
55288;SDS011;41154;45.394;5.734;2023-07-08T00:23:48;8.77;;;3.47;;
55288;SDS011;41154;45.394;5.734;2023-07-08T00:26:30;26.38;;;5.60;;
55288;SDS011;41154;45.394;5.734;2023-07-08T00:28:58;16.55;;;4.30;;
55288;SDS011;41154;45.394;5.734;2023-07-08T00:31:24;13.40;;;3.95;;
55288;SDS011;41154;45.394;5.734;2023-07-08T00:33:51;7.68;;;3.50;;
55288;SDS011;41154;45.394;5.734;2023-07-08T00:36:21;5.95;;;3.42;;
55288;SDS011;41154;45.394;5.734;2023-07-08T00:38:49;7.40;;;3.38;;
55288;SDS011;41154;45.394;5.734;2023-07-08T00:41:25;5.93;;;3.38;;
55288;SDS011;41154;45.394;5.734;2023-07-08T00:43:55;9.98;;;3.72;;
55288;SDS011;41154;45.394;5.734;2023-07-08T00:51:32;4.78;;;3.28;;
55288;SDS011;41154;45.394;5.734;2023-07-08T00:53:59;7.30;;;3.42;;
55288;SDS011;41154;45.394;5.734;2023-07-08T01:01:42;5.50;;;2.90;;
55288;SDS011;41154;45.394;5.734;2023-07-08T01:04:10;13.27;;;3.30;;
55288;SDS011;41154;45.394;5.734;2023-07-08T01:06:40;6.40;;;3.40;;
55288;SDS011;41154;45.394;5.734;2023-07-08T01:09:10;6.82;;;3.33;;
55288;SDS011;41154;45.394;5.734;2023-07-08T01:11:39;5.32;;;3.70;;
55288;SDS011;41154;45.394;5.734;2023-07-08T01:14:08;6.28;;;3.63;;
55288;SDS011;41154;45.394;5.734;2023-07-08T01:16:38;10.07;;;4.15;;
55288;SDS011;41154;45.394;5.734;2023-07-08T01:19:04;12.65;;;2.92;;
55288;SDS011;41154;45.394;5.734;2023-07-08T01:21:38;5.00;;;3.47;;
55288;SDS011;41154;45.394;5.734;2023-07-08T01:24:10;6.10;;;3.65;;
55288;SDS011;41154;45.394;5.734;2023-07-08T01:26:37;6.28;;;3.97;;
55288;SDS011;41154;45.394;5.734;2023-07-08T01:29:07;5.85;;;3.58;;
55288;SDS011;41154;45.394;5.734;2023-07-08T01:31:33;5.57;;;3.72;;
55288;SDS011;41154;45.394;5.734;2023-07-08T01:34:03;6.15;;;3.60;;
55288;SDS011;41154;45.394;5.734;2023-07-08T01:36:31;7.38;;;3.67;;
55288;SDS011;41154;45.394;5.734;2023-07-08T01:39:02;20.00;;;4.70;;
55288;SDS011;41154;45.394;5.734;2023-07-08T01:41:28;8.63;;;3.75;;
55288;SDS011;41154;45.394;5.734;2023-07-08T01:43:54;8.85;;;3.25;;
55288;SDS011;41154;45.394;5.734;2023-07-08T01:46:21;9.20;;;3.40;;
55288;SDS011;41154;45.394;5.734;2023-07-08T01:48:51;5.35;;;3.30;;
55288;SDS011;41154;45.394;5.734;2023-07-08T01:51:22;7.70;;;3.40;;
55288;SDS011;41154;45.394;5.734;2023-07-08T01:53:50;6.00;;;3.85;;
55288;SDS011;41154;45.394;5.734;2023-07-08T01:56:16;5.13;;;3.33;;
55288;SDS011;41154;45.394;5.734;2023-07-08T01:58:42;6.57;;;3.42;;
55288;SDS011;41154;45.394;5.734;2023-07-08T02:01:09;7.30;;;3.42;;
55288;SDS011;41154;45.394;5.734;2023-07-08T02:03:36;6.53;;;3.63;;
55288;SDS011;41154;45.394;5.734;2023-07-08T02:06:02;5.45;;;3.40;;
55288;SDS011;41154;45.394;5.734;2023-07-08T02:08:29;6.13;;;3.28;;
55288;SDS011;41154;45.394;5.734;2023-07-08T02:10:55;6.97;;;3.35;;
55288;SDS011;41154;45.394;5.734;2023-07-08T02:13:22;7.43;;;3.63;;
55288;SDS011;41154;45.394;5.734;2023-07-08T02:15:50;6.63;;;3.42;;
55288;SDS011;41154;45.394;5.734;2023-07-08T02:18:16;5.82;;;3.00;;
55288;SDS011;41154;45.394;5.734;2023-07-08T02:20:44;7.15;;;3.55;;
55288;SDS011;41154;45.394;5.734;2023-07-08T02:23:12;7.43;;;3.60;;
55288;SDS011;41154;45.394;5.734;2023-07-08T02:25:39;7.38;;;3.67;;
55288;SDS011;41154;45.394;5.734;2023-07-08T02:28:05;5.57;;;3.28;;
55288;SDS011;41154;45.394;5.734;2023-07-08T02:30:31;4.00;;;3.22;;
55288;SDS011;41154;45.394;5.734;2023-07-08T02:32:58;7.57;;;3.53;;
55288;SDS011;41154;45.394;5.734;2023-07-08T02:35:24;5.90;;;3.42;;
55288;SDS011;41154;45.394;5.734;2023-07-08T02:37:52;6.60;;;3.65;;
55288;SDS011;41154;45.394;5.734;2023-07-08T02:40:18;4.75;;;3.05;;
55288;SDS011;41154;45.394;5.734;2023-07-08T02:42:45;5.30;;;3.25;;
55288;SDS011;41154;45.394;5.734;2023-07-08T02:45:11;5.85;;;3.58;;
55288;SDS011;41154;45.394;5.734;2023-07-08T02:47:37;5.95;;;2.97;;
55288;SDS011;41154;45.394;5.734;2023-07-08T02:50:03;6.50;;;3.40;;
55288;SDS011;41154;45.394;5.734;2023-07-08T02:52:30;6.63;;;3.13;;
55288;SDS011;41154;45.394;5.734;2023-07-08T02:54:56;6.15;;;3.40;;
55288;SDS011;41154;45.394;5.734;2023-07-08T02:57:22;8.25;;;3.92;;
55288;SDS011;41154;45.394;5.734;2023-07-08T02:59:47;7.40;;;3.40;;
55288;SDS011;41154;45.394;5.734;2023-07-08T03:02:13;7.93;;;3.03;;
55288;SDS011;41154;45.394;5.734;2023-07-08T03:04:39;7.88;;;3.53;;
55288;SDS011;41154;45.394;5.734;2023-07-08T03:07:06;7.65;;;3.60;;
55288;SDS011;41154;45.394;5.734;2023-07-08T03:09:37;7.97;;;3.85;;
55288;SDS011;41154;45.394;5.734;2023-07-08T03:12:05;7.32;;;3.47;;
55288;SDS011;41154;45.394;5.734;2023-07-08T03:14:31;4.15;;;2.80;;
55288;SDS011;41154;45.394;5.734;2023-07-08T03:16:59;5.68;;;2.92;;
55288;SDS011;41154;45.394;5.734;2023-07-08T03:19:25;4.72;;;3.30;;
55288;SDS011;41154;45.394;5.734;2023-07-08T03:21:52;7.45;;;3.20;;
55288;SDS011;41154;45.394;5.734;2023-07-08T03:24:18;5.30;;;2.95;;
55288;SDS011;41154;45.394;5.734;2023-07-08T03:26:45;7.57;;;3.17;;
55288;SDS011;41154;45.394;5.734;2023-07-08T03:29:13;5.07;;;3.00;;
55288;SDS011;41154;45.394;5.734;2023-07-08T03:31:42;6.85;;;3.33;;
55288;SDS011;41154;45.394;5.734;2023-07-08T03:34:12;8.15;;;4.10;;
55288;SDS011;41154;45.394;5.734;2023-07-08T03:36:42;9.52;;;3.40;;
55288;SDS011;41154;45.394;5.734;2023-07-08T03:39:18;4.50;;;2.95;;
55288;SDS011;41154;45.394;5.734;2023-07-08T03:41:45;5.40;;;3.17;;
55288;SDS011;41154;45.394;5.734;2023-07-08T03:44:13;6.65;;;3.70;;
55288;SDS011;41154;45.394;5.734;2023-07-08T03:46:42;6.35;;;3.63;;
55288;SDS011;41154;45.394;5.734;2023-07-08T03:49:09;9.02;;;4.30;;
55288;SDS011;41154;45.394;5.734;2023-07-08T03:51:36;6.80;;;4.20;;
55288;SDS011;41154;45.394;5.734;2023-07-08T03:54:04;7.50;;;3.53;;
55288;SDS011;41154;45.394;5.734;2023-07-08T03:56:33;7.93;;;3.63;;
55288;SDS011;41154;45.394;5.734;2023-07-08T03:59:01;5.38;;;3.17;;
55288;SDS011;41154;45.394;5.734;2023-07-08T04:01:28;7.05;;;3.50;;
55288;SDS011;41154;45.394;5.734;2023-07-08T04:03:55;8.25;;;4.25;;
55288;SDS011;41154;45.394;5.734;2023-07-08T04:06:22;8.38;;;4.18;;
55288;SDS011;41154;45.394;5.734;2023-07-08T04:08:49;8.57;;;4.22;;
55288;SDS011;41154;45.394;5.734;2023-07-08T04:11:16;7.43;;;3.90;;
55288;SDS011;41154;45.394;5.734;2023-07-08T04:13:45;6.35;;;3.05;;
55288;SDS011;41154;45.394;5.734;2023-07-08T04:16:37;6.55;;;3.28;;
55288;SDS011;41154;45.394;5.734;2023-07-08T04:19:12;5.40;;;3.42;;
55288;SDS011;41154;45.394;5.734;2023-07-08T04:21:40;7.13;;;3.90;;
55288;SDS011;41154;45.394;5.734;2023-07-08T04:24:09;7.38;;;3.63;;
55288;SDS011;41154;45.394;5.734;2023-07-08T04:26:36;6.65;;;3.50;;
55288;SDS011;41154;45.394;5.734;2023-07-08T04:29:06;9.65;;;3.97;;
55288;SDS011;41154;45.394;5.734;2023-07-08T04:31:38;7.00;;;3.08;;
55288;SDS011;41154;45.394;5.734;2023-07-08T04:34:04;6.53;;;3.40;;
55288;SDS011;41154;45.394;5.734;2023-07-08T04:36:32;5.15;;;3.17;;
55288;SDS011;41154;45.394;5.734;2023-07-08T04:38:59;7.00;;;3.40;;
55288;SDS011;41154;45.394;5.734;2023-07-08T04:41:25;7.22;;;2.97;;
55288;SDS011;41154;45.394;5.734;2023-07-08T04:43:52;7.05;;;3.35;;
55288;SDS011;41154;45.394;5.734;2023-07-08T04:46:32;5.90;;;3.22;;
55288;SDS011;41154;45.394;5.734;2023-07-08T04:49:01;8.60;;;3.10;;
55288;SDS011;41154;45.394;5.734;2023-07-08T04:51:28;5.63;;;3.20;;
55288;SDS011;41154;45.394;5.734;2023-07-08T04:53:54;4.70;;;3.05;;
55288;SDS011;41154;45.394;5.734;2023-07-08T04:56:20;8.27;;;3.17;;
55288;SDS011;41154;45.394;5.734;2023-07-08T04:58:47;5.93;;;3.30;;
55288;SDS011;41154;45.394;5.734;2023-07-08T05:01:13;7.20;;;3.58;;
55288;SDS011;41154;45.394;5.734;2023-07-08T05:03:39;6.63;;;3.10;;
55288;SDS011;41154;45.394;5.734;2023-07-08T05:06:04;6.80;;;3.58;;
55288;SDS011;41154;45.394;5.734;2023-07-08T05:08:30;5.95;;;3.50;;
55288;SDS011;41154;45.394;5.734;2023-07-08T05:10:56;6.28;;;3.65;;
55288;SDS011;41154;45.394;5.734;2023-07-08T05:13:22;8.98;;;3.40;;
55288;SDS011;41154;45.394;5.734;2023-07-08T05:15:48;9.25;;;3.50;;
55288;SDS011;41154;45.394;5.734;2023-07-08T05:18:14;7.18;;;3.85;;
55288;SDS011;41154;45.394;5.734;2023-07-08T05:20:40;5.47;;;2.97;;
55288;SDS011;41154;45.394;5.734;2023-07-08T05:23:06;8.35;;;3.92;;
55288;SDS011;41154;45.394;5.734;2023-07-08T05:25:32;9.07;;;3.70;;
55288;SDS011;41154;45.394;5.734;2023-07-08T05:27:58;5.50;;;2.92;;
55288;SDS011;41154;45.394;5.734;2023-07-08T05:30:24;6.85;;;2.95;;
55288;SDS011;41154;45.394;5.734;2023-07-08T05:32:50;4.75;;;2.83;;
55288;SDS011;41154;45.394;5.734;2023-07-08T05:35:15;6.35;;;3.35;;
55288;SDS011;41154;45.394;5.734;2023-07-08T05:37:41;6.10;;;2.92;;
55288;SDS011;41154;45.394;5.734;2023-07-08T05:40:10;6.07;;;3.22;;
55288;SDS011;41154;45.394;5.734;2023-07-08T05:42:36;7.78;;;3.20;;
55288;SDS011;41154;45.394;5.734;2023-07-08T05:45:03;4.25;;;2.63;;
55288;SDS011;41154;45.394;5.734;2023-07-08T05:47:32;6.40;;;3.30;;
55288;SDS011;41154;45.394;5.734;2023-07-08T05:49:58;4.70;;;2.90;;
55288;SDS011;41154;45.394;5.734;2023-07-08T05:52:23;4.95;;;2.80;;
55288;SDS011;41154;45.394;5.734;2023-07-08T05:54:49;6.20;;;2.90;;
55288;SDS011;41154;45.394;5.734;2023-07-08T05:57:15;6.20;;;3.08;;
55288;SDS011;41154;45.394;5.734;2023-07-08T05:59:40;5.25;;;2.67;;
55288;SDS011;41154;45.394;5.734;2023-07-08T06:02:08;4.97;;;2.85;;
55288;SDS011;41154;45.394;5.734;2023-07-08T06:04:36;6.00;;;2.55;;
55288;SDS011;41154;45.394;5.734;2023-07-08T06:07:02;4.43;;;2.58;;
55288;SDS011;41154;45.394;5.734;2023-07-08T06:09:28;7.45;;;2.78;;
55288;SDS011;41154;45.394;5.734;2023-07-08T06:11:54;3.92;;;2.53;;
55288;SDS011;41154;45.394;5.734;2023-07-08T06:14:20;4.53;;;3.05;;
55288;SDS011;41154;45.394;5.734;2023-07-08T06:16:45;6.18;;;2.53;;
55288;SDS011;41154;45.394;5.734;2023-07-08T06:19:11;4.22;;;2.60;;
55288;SDS011;41154;45.394;5.734;2023-07-08T06:21:37;4.60;;;2.58;;
55288;SDS011;41154;45.394;5.734;2023-07-08T06:24:03;11.02;;;2.80;;
55288;SDS011;41154;45.394;5.734;2023-07-08T06:26:29;3.13;;;2.20;;
55288;SDS011;41154;45.394;5.734;2023-07-08T06:28:55;6.10;;;3.15;;
55288;SDS011;41154;45.394;5.734;2023-07-08T06:31:20;4.95;;;2.50;;
55288;SDS011;41154;45.394;5.734;2023-07-08T06:33:46;4.35;;;2.72;;
55288;SDS011;41154;45.394;5.734;2023-07-08T06:36:12;5.68;;;2.45;;
55288;SDS011;41154;45.394;5.734;2023-07-08T06:38:38;5.78;;;2.92;;
55288;SDS011;41154;45.394;5.734;2023-07-08T06:41:03;5.75;;;2.50;;
55288;SDS011;41154;45.394;5.734;2023-07-08T06:43:29;3.85;;;2.38;;
55288;SDS011;41154;45.394;5.734;2023-07-08T06:46:03;3.92;;;2.40;;
55288;SDS011;41154;45.394;5.734;2023-07-08T06:48:31;5.90;;;2.55;;
55288;SDS011;41154;45.394;5.734;2023-07-08T06:50:57;3.78;;;2.65;;
55288;SDS011;41154;45.394;5.734;2023-07-08T06:53:23;4.85;;;2.50;;
55288;SDS011;41154;45.394;5.734;2023-07-08T06:55:48;4.55;;;2.50;;
55288;SDS011;41154;45.394;5.734;2023-07-08T06:58:15;10.10;;;2.60;;
55288;SDS011;41154;45.394;5.734;2023-07-08T07:00:44;5.50;;;2.40;;
55288;SDS011;41154;45.394;5.734;2023-07-08T07:03:10;8.80;;;3.08;;
55288;SDS011;41154;45.394;5.734;2023-07-08T07:05:37;4.57;;;2.50;;
55288;SDS011;41154;45.394;5.734;2023-07-08T07:08:03;5.07;;;2.67;;
55288;SDS011;41154;45.394;5.734;2023-07-08T07:10:30;4.85;;;2.70;;
55288;SDS011;41154;45.394;5.734;2023-07-08T07:12:56;8.00;;;2.95;;
55288;SDS011;41154;45.394;5.734;2023-07-08T07:15:21;7.28;;;2.78;;
55288;SDS011;41154;45.394;5.734;2023-07-08T07:17:47;3.72;;;2.60;;
55288;SDS011;41154;45.394;5.734;2023-07-08T07:20:13;4.43;;;2.40;;
55288;SDS011;41154;45.394;5.734;2023-07-08T07:22:39;6.07;;;2.45;;
55288;SDS011;41154;45.394;5.734;2023-07-08T07:25:05;5.80;;;2.10;;
55288;SDS011;41154;45.394;5.734;2023-07-08T07:27:31;5.15;;;2.65;;
55288;SDS011;41154;45.394;5.734;2023-07-08T07:29:57;4.30;;;2.60;;
55288;SDS011;41154;45.394;5.734;2023-07-08T07:32:26;5.72;;;2.70;;
55288;SDS011;41154;45.394;5.734;2023-07-08T07:34:53;3.88;;;2.20;;
55288;SDS011;41154;45.394;5.734;2023-07-08T07:37:20;3.95;;;2.47;;
55288;SDS011;41154;45.394;5.734;2023-07-08T07:39:47;5.72;;;2.25;;
55288;SDS011;41154;45.394;5.734;2023-07-08T07:42:13;7.00;;;2.92;;
55288;SDS011;41154;45.394;5.734;2023-07-08T07:44:40;5.22;;;2.35;;
55288;SDS011;41154;45.394;5.734;2023-07-08T07:47:07;7.97;;;2.70;;
55288;SDS011;41154;45.394;5.734;2023-07-08T07:49:33;4.70;;;2.63;;
55288;SDS011;41154;45.394;5.734;2023-07-08T07:51:59;4.80;;;2.30;;
55288;SDS011;41154;45.394;5.734;2023-07-08T07:54:25;5.32;;;2.20;;
55288;SDS011;41154;45.394;5.734;2023-07-08T07:56:51;4.22;;;2.03;;
55288;SDS011;41154;45.394;5.734;2023-07-08T07:59:17;5.35;;;2.35;;
55288;SDS011;41154;45.394;5.734;2023-07-08T08:01:43;6.75;;;3.00;;
55288;SDS011;41154;45.394;5.734;2023-07-08T08:04:09;3.05;;;2.00;;
55288;SDS011;41154;45.394;5.734;2023-07-08T08:06:36;6.75;;;2.53;;
55288;SDS011;41154;45.394;5.734;2023-07-08T08:09:03;4.47;;;2.28;;
55288;SDS011;41154;45.394;5.734;2023-07-08T08:11:29;4.78;;;2.45;;
55288;SDS011;41154;45.394;5.734;2023-07-08T08:13:56;5.80;;;2.40;;
55288;SDS011;41154;45.394;5.734;2023-07-08T08:16:22;5.85;;;2.30;;
55288;SDS011;41154;45.394;5.734;2023-07-08T08:18:48;4.68;;;2.50;;
55288;SDS011;41154;45.394;5.734;2023-07-08T08:21:14;4.68;;;2.17;;
55288;SDS011;41154;45.394;5.734;2023-07-08T08:23:40;7.22;;;2.33;;
55288;SDS011;41154;45.394;5.734;2023-07-08T08:26:05;5.07;;;2.30;;
55288;SDS011;41154;45.394;5.734;2023-07-08T08:28:31;3.72;;;2.03;;
55288;SDS011;41154;45.394;5.734;2023-07-08T08:30:57;5.72;;;2.38;;
55288;SDS011;41154;45.394;5.734;2023-07-08T08:33:23;3.08;;;2.00;;
55288;SDS011;41154;45.394;5.734;2023-07-08T08:35:48;8.18;;;2.53;;
55288;SDS011;41154;45.394;5.734;2023-07-08T08:38:15;4.75;;;2.40;;
55288;SDS011;41154;45.394;5.734;2023-07-08T08:40:42;5.90;;;2.13;;
55288;SDS011;41154;45.394;5.734;2023-07-08T08:43:16;4.40;;;2.40;;
55288;SDS011;41154;45.394;5.734;2023-07-08T08:48:57;4.30;;;2.40;;
55288;SDS011;41154;45.394;5.734;2023-07-08T08:55:17;5.38;;;2.53;;
55288;SDS011;41154;45.394;5.734;2023-07-08T09:04:50;4.75;;;2.58;;
55288;SDS011;41154;45.394;5.734;2023-07-08T09:07:16;4.78;;;2.53;;
55288;SDS011;41154;45.394;5.734;2023-07-08T09:10:02;5.30;;;2.70;;
55288;SDS011;41154;45.394;5.734;2023-07-08T09:12:35;6.07;;;2.60;;
55288;SDS011;41154;45.394;5.734;2023-07-08T09:15:10;5.30;;;2.75;;
55288;SDS011;41154;45.394;5.734;2023-07-08T09:17:38;4.72;;;2.70;;
55288;SDS011;41154;45.394;5.734;2023-07-08T09:25:31;5.70;;;2.50;;
55288;SDS011;41154;45.394;5.734;2023-07-08T09:27:58;5.80;;;2.60;;
55288;SDS011;41154;45.394;5.734;2023-07-08T09:34:13;7.18;;;3.17;;
55288;SDS011;41154;45.394;5.734;2023-07-08T09:40:34;5.57;;;2.80;;
55288;SDS011;41154;45.394;5.734;2023-07-08T09:43:25;5.75;;;2.83;;
55288;SDS011;41154;45.394;5.734;2023-07-08T09:45:57;7.38;;;2.50;;
55288;SDS011;41154;45.394;5.734;2023-07-08T09:48:27;5.65;;;2.75;;
55288;SDS011;41154;45.394;5.734;2023-07-08T09:50:59;6.25;;;3.20;;
55288;SDS011;41154;45.394;5.734;2023-07-08T09:53:27;6.07;;;2.72;;
55288;SDS011;41154;45.394;5.734;2023-07-08T09:55:56;5.78;;;2.72;;
55288;SDS011;41154;45.394;5.734;2023-07-08T10:01:10;5.50;;;2.50;;
55288;SDS011;41154;45.394;5.734;2023-07-08T10:03:38;5.72;;;2.95;;
55288;SDS011;41154;45.394;5.734;2023-07-08T10:06:05;5.72;;;2.60;;
55288;SDS011;41154;45.394;5.734;2023-07-08T10:08:42;5.90;;;2.75;;
55288;SDS011;41154;45.394;5.734;2023-07-08T10:13:59;5.03;;;2.50;;
55288;SDS011;41154;45.394;5.734;2023-07-08T10:16:30;5.03;;;2.75;;
55288;SDS011;41154;45.394;5.734;2023-07-08T10:18:57;4.65;;;2.65;;
55288;SDS011;41154;45.394;5.734;2023-07-08T10:26:55;6.70;;;2.65;;
55288;SDS011;41154;45.394;5.734;2023-07-08T10:44:19;7.22;;;2.80;;
55288;SDS011;41154;45.394;5.734;2023-07-08T10:57:19;4.97;;;2.60;;
55288;SDS011;41154;45.394;5.734;2023-07-08T11:03:06;7.43;;;2.63;;
55288;SDS011;41154;45.394;5.734;2023-07-08T11:08:43;6.10;;;2.60;;
55288;SDS011;41154;45.394;5.734;2023-07-08T11:11:24;8.40;;;2.63;;
55288;SDS011;41154;45.394;5.734;2023-07-08T11:14:13;4.82;;;2.70;;
55288;SDS011;41154;45.394;5.734;2023-07-08T11:23:02;4.10;;;2.35;;
55288;SDS011;41154;45.394;5.734;2023-07-08T11:25:35;7.47;;;2.85;;
55288;SDS011;41154;45.394;5.734;2023-07-08T11:28:03;4.85;;;2.70;;
55288;SDS011;41154;45.394;5.734;2023-07-08T11:30:32;5.13;;;2.72;;
55288;SDS011;41154;45.394;5.734;2023-07-08T11:33:02;4.18;;;2.60;;
55288;SDS011;41154;45.394;5.734;2023-07-08T11:38:09;4.45;;;2.35;;
55288;SDS011;41154;45.394;5.734;2023-07-08T11:40:49;7.57;;;2.90;;
55288;SDS011;41154;45.394;5.734;2023-07-08T11:43:16;3.58;;;2.15;;
55288;SDS011;41154;45.394;5.734;2023-07-08T11:45:44;9.20;;;2.75;;
55288;SDS011;41154;45.394;5.734;2023-07-08T11:48:13;5.45;;;2.47;;
55288;SDS011;41154;45.394;5.734;2023-07-08T11:50:46;5.10;;;2.50;;
55288;SDS011;41154;45.394;5.734;2023-07-08T11:53:31;4.35;;;2.38;;
55288;SDS011;41154;45.394;5.734;2023-07-08T11:56:06;7.70;;;2.97;;
55288;SDS011;41154;45.394;5.734;2023-07-08T12:01:30;6.07;;;2.40;;
55288;SDS011;41154;45.394;5.734;2023-07-08T12:12:49;9.80;;;2.60;;
55288;SDS011;41154;45.394;5.734;2023-07-08T12:15:23;5.10;;;2.53;;
55288;SDS011;41154;45.394;5.734;2023-07-08T12:17:52;4.13;;;2.28;;
55288;SDS011;41154;45.394;5.734;2023-07-08T12:20:28;7.35;;;2.72;;
55288;SDS011;41154;45.394;5.734;2023-07-08T12:22:54;4.85;;;2.25;;
55288;SDS011;41154;45.394;5.734;2023-07-08T12:25:22;4.22;;;2.35;;
55288;SDS011;41154;45.394;5.734;2023-07-08T12:27:52;3.97;;;2.10;;
55288;SDS011;41154;45.394;5.734;2023-07-08T12:30:17;3.33;;;2.38;;
55288;SDS011;41154;45.394;5.734;2023-07-08T12:32:44;7.25;;;2.60;;
55288;SDS011;41154;45.394;5.734;2023-07-08T12:36:17;4.55;;;2.47;;
55288;SDS011;41154;45.394;5.734;2023-07-08T12:38:45;6.05;;;2.53;;
55288;SDS011;41154;45.394;5.734;2023-07-08T12:41:15;6.30;;;2.30;;
55288;SDS011;41154;45.394;5.734;2023-07-08T12:43:43;7.03;;;2.50;;
55288;SDS011;41154;45.394;5.734;2023-07-08T12:46:11;6.03;;;2.50;;
55288;SDS011;41154;45.394;5.734;2023-07-08T12:48:38;6.43;;;2.28;;
55288;SDS011;41154;45.394;5.734;2023-07-08T12:51:05;4.90;;;2.28;;
55288;SDS011;41154;45.394;5.734;2023-07-08T12:53:36;4.72;;;2.40;;
55288;SDS011;41154;45.394;5.734;2023-07-08T12:56:02;3.55;;;2.20;;
55288;SDS011;41154;45.394;5.734;2023-07-08T12:58:29;4.97;;;2.97;;
55288;SDS011;41154;45.394;5.734;2023-07-08T13:00:58;4.00;;;2.17;;
55288;SDS011;41154;45.394;5.734;2023-07-08T13:03:29;7.00;;;3.00;;
55288;SDS011;41154;45.394;5.734;2023-07-08T13:05:58;6.85;;;2.45;;
55288;SDS011;41154;45.394;5.734;2023-07-08T13:08:27;3.75;;;2.20;;
55288;SDS011;41154;45.394;5.734;2023-07-08T13:10:58;4.18;;;2.80;;
55288;SDS011;41154;45.394;5.734;2023-07-08T13:13:26;4.03;;;2.22;;
55288;SDS011;41154;45.394;5.734;2023-07-08T13:15:56;4.75;;;2.13;;
55288;SDS011;41154;45.394;5.734;2023-07-08T13:18:30;5.75;;;2.50;;
55288;SDS011;41154;45.394;5.734;2023-07-08T13:20:59;6.97;;;2.65;;
55288;SDS011;41154;45.394;5.734;2023-07-08T13:23:26;6.50;;;2.40;;
55288;SDS011;41154;45.394;5.734;2023-07-08T13:25:53;5.72;;;2.15;;
55288;SDS011;41154;45.394;5.734;2023-07-08T13:30:56;4.05;;;1.92;;
55288;SDS011;41154;45.394;5.734;2023-07-08T13:33:28;5.32;;;2.45;;
55288;SDS011;41154;45.394;5.734;2023-07-08T13:36:00;6.43;;;2.42;;
55288;SDS011;41154;45.394;5.734;2023-07-08T13:38:30;5.22;;;2.30;;
55288;SDS011;41154;45.394;5.734;2023-07-08T13:41:00;5.25;;;2.40;;
55288;SDS011;41154;45.394;5.734;2023-07-08T13:43:31;5.72;;;2.50;;
55288;SDS011;41154;45.394;5.734;2023-07-08T13:46:00;5.30;;;2.67;;
55288;SDS011;41154;45.394;5.734;2023-07-08T13:48:28;6.95;;;2.40;;
55288;SDS011;41154;45.394;5.734;2023-07-08T13:51:05;6.53;;;2.50;;
55288;SDS011;41154;45.394;5.734;2023-07-08T13:56:13;5.57;;;2.53;;
55288;SDS011;41154;45.394;5.734;2023-07-08T13:58:53;7.18;;;2.72;;
55288;SDS011;41154;45.394;5.734;2023-07-08T14:01:28;5.72;;;2.60;;
55288;SDS011;41154;45.394;5.734;2023-07-08T14:03:56;5.00;;;2.30;;
55288;SDS011;41154;45.394;5.734;2023-07-08T14:06:23;4.15;;;2.17;;
55288;SDS011;41154;45.394;5.734;2023-07-08T14:08:54;4.43;;;2.28;;
55288;SDS011;41154;45.394;5.734;2023-07-08T14:11:22;4.75;;;2.10;;
55288;SDS011;41154;45.394;5.734;2023-07-08T14:13:48;5.28;;;2.75;;
55288;SDS011;41154;45.394;5.734;2023-07-08T14:16:25;5.10;;;2.75;;
55288;SDS011;41154;45.394;5.734;2023-07-08T14:18:55;5.45;;;2.35;;
55288;SDS011;41154;45.394;5.734;2023-07-08T14:21:26;6.43;;;2.35;;
55288;SDS011;41154;45.394;5.734;2023-07-08T14:23:52;6.70;;;2.50;;
55288;SDS011;41154;45.394;5.734;2023-07-08T14:26:19;6.55;;;2.78;;
55288;SDS011;41154;45.394;5.734;2023-07-08T14:28:44;5.35;;;2.85;;
55288;SDS011;41154;45.394;5.734;2023-07-08T14:31:11;4.43;;;2.30;;
55288;SDS011;41154;45.394;5.734;2023-07-08T14:33:39;6.07;;;2.90;;
55288;SDS011;41154;45.394;5.734;2023-07-08T14:36:12;6.18;;;2.60;;
55288;SDS011;41154;45.394;5.734;2023-07-08T14:38:39;6.10;;;2.63;;
55288;SDS011;41154;45.394;5.734;2023-07-08T14:41:14;6.13;;;2.88;;
55288;SDS011;41154;45.394;5.734;2023-07-08T14:44:33;4.65;;;2.20;;
55288;SDS011;41154;45.394;5.734;2023-07-08T14:47:01;4.40;;;2.42;;
55288;SDS011;41154;45.394;5.734;2023-07-08T14:49:27;5.80;;;2.40;;
55288;SDS011;41154;45.394;5.734;2023-07-08T14:51:53;5.75;;;2.38;;
55288;SDS011;41154;45.394;5.734;2023-07-08T14:54:19;8.00;;;2.40;;
55288;SDS011;41154;45.394;5.734;2023-07-08T14:56:46;4.80;;;2.90;;
55288;SDS011;41154;45.394;5.734;2023-07-08T14:59:21;5.03;;;2.47;;
55288;SDS011;41154;45.394;5.734;2023-07-08T15:01:48;9.50;;;3.08;;
55288;SDS011;41154;45.394;5.734;2023-07-08T15:04:16;4.88;;;2.35;;
55288;SDS011;41154;45.394;5.734;2023-07-08T15:06:42;3.50;;;2.20;;
55288;SDS011;41154;45.394;5.734;2023-07-08T15:09:09;4.50;;;2.47;;
55288;SDS011;41154;45.394;5.734;2023-07-08T15:11:36;6.72;;;2.70;;
55288;SDS011;41154;45.394;5.734;2023-07-08T15:14:10;4.10;;;2.20;;
55288;SDS011;41154;45.394;5.734;2023-07-08T15:16:40;7.45;;;2.40;;
55288;SDS011;41154;45.394;5.734;2023-07-08T15:19:09;6.50;;;2.70;;
55288;SDS011;41154;45.394;5.734;2023-07-08T15:21:36;5.68;;;2.53;;
55288;SDS011;41154;45.394;5.734;2023-07-08T15:24:03;5.28;;;2.42;;
55288;SDS011;41154;45.394;5.734;2023-07-08T15:26:29;7.13;;;2.67;;
55288;SDS011;41154;45.394;5.734;2023-07-08T15:28:55;4.35;;;2.35;;
55288;SDS011;41154;45.394;5.734;2023-07-08T15:31:24;7.50;;;2.53;;
55288;SDS011;41154;45.394;5.734;2023-07-08T15:33:57;5.25;;;2.30;;
55288;SDS011;41154;45.394;5.734;2023-07-08T15:36:22;4.93;;;2.60;;
55288;SDS011;41154;45.394;5.734;2023-07-08T15:38:48;4.00;;;2.10;;
55288;SDS011;41154;45.394;5.734;2023-07-08T15:41:24;5.60;;;2.50;;
55288;SDS011;41154;45.394;5.734;2023-07-08T15:43:54;6.28;;;2.78;;
55288;SDS011;41154;45.394;5.734;2023-07-08T15:46:22;3.88;;;2.50;;
55288;SDS011;41154;45.394;5.734;2023-07-08T15:48:52;6.50;;;2.75;;
55288;SDS011;41154;45.394;5.734;2023-07-08T15:51:17;5.88;;;2.50;;
55288;SDS011;41154;45.394;5.734;2023-07-08T15:53:43;5.57;;;2.95;;
55288;SDS011;41154;45.394;5.734;2023-07-08T15:56:13;6.97;;;2.50;;
55288;SDS011;41154;45.394;5.734;2023-07-08T15:58:41;5.25;;;2.40;;
55288;SDS011;41154;45.394;5.734;2023-07-08T16:01:10;6.88;;;2.35;;
55288;SDS011;41154;45.394;5.734;2023-07-08T16:03:49;5.72;;;2.60;;
55288;SDS011;41154;45.394;5.734;2023-07-08T16:06:16;6.65;;;2.60;;
55288;SDS011;41154;45.394;5.734;2023-07-08T16:08:44;4.70;;;2.65;;
55288;SDS011;41154;45.394;5.734;2023-07-08T16:11:13;6.63;;;2.70;;
55288;SDS011;41154;45.394;5.734;2023-07-08T16:13:41;6.00;;;2.45;;
55288;SDS011;41154;45.394;5.734;2023-07-08T16:16:09;5.80;;;2.70;;
55288;SDS011;41154;45.394;5.734;2023-07-08T16:18:36;6.35;;;2.75;;
55288;SDS011;41154;45.394;5.734;2023-07-08T16:21:02;5.57;;;2.60;;
55288;SDS011;41154;45.394;5.734;2023-07-08T16:23:28;6.47;;;2.47;;
55288;SDS011;41154;45.394;5.734;2023-07-08T16:25:54;5.05;;;2.55;;
55288;SDS011;41154;45.394;5.734;2023-07-08T16:33:21;9.15;;;2.80;;
55288;SDS011;41154;45.394;5.734;2023-07-08T16:35:47;4.70;;;2.38;;
55288;SDS011;41154;45.394;5.734;2023-07-08T16:38:15;7.57;;;2.92;;
55288;SDS011;41154;45.394;5.734;2023-07-08T16:40:41;5.20;;;2.83;;
55288;SDS011;41154;45.394;5.734;2023-07-08T16:43:16;6.95;;;2.90;;
55288;SDS011;41154;45.394;5.734;2023-07-08T16:45:51;6.03;;;2.75;;
55288;SDS011;41154;45.394;5.734;2023-07-08T16:48:17;5.03;;;2.35;;